Normandy, Tennessee
Current Conditions -  °F | °C
As of 2:15 AM on Saturday 01 Nov 2014 (Local Time) from KTHA Reporting Station
Overcast Overcast  
Wind Chill: 26°   Ceiling: 3200
Heat Index: 36°   Visibility: 10mi
Dew Point: 25°   Wind: 16mph
Humidity: 65%   Direction: 340°NNW
Pressure: 30.08"   Gusts: 25mph
Location:  35.45°N, 86.26°W
Report Text: KTHA 010715Z AUTO 34014G22KT 10SM OVC032 02/M04 A3008 RMK
Loading
Personal Weather Stations






























Interactive Weather Map
Tropical Storm Tracking
New forecast layout! Learn more

10-Day Weather Forecast

Advertisements
Track Severe Weather on mobile